createdAt,value
2023-04-09T00:01:06.954Z,102657.55
2023-04-09T00:03:37.743Z,102655.17
2023-04-09T00:06:09.716Z,102662.57
2023-04-09T00:08:39.576Z,102662.57
2023-04-09T00:11:09.379Z,102655.33
2023-04-09T00:13:40.063Z,102660.94
2023-04-09T00:16:11.409Z,102656.52
2023-04-09T00:18:41.618Z,102653.25
2023-04-09T00:21:11.439Z,102654.98
2023-04-09T00:23:41.812Z,102655.33
2023-04-09T00:26:11.631Z,102651.05
2023-04-09T00:28:41.721Z,102648.14
2023-04-09T00:31:11.631Z,102649.00
2023-04-09T00:33:42.067Z,102644.73
2023-04-09T00:36:11.934Z,102644.07
2023-04-09T00:38:41.925Z,102641.47
2023-04-09T00:41:12.100Z,102632.17
2023-04-09T00:43:41.871Z,102632.17
2023-04-09T00:46:12.031Z,102636.13
2023-04-09T00:48:42.042Z,102633.28
2023-04-09T00:51:11.661Z,102635.69
2023-04-09T00:53:41.623Z,102628.00
2023-04-09T00:56:13.669Z,102633.13
2023-04-09T00:58:43.438Z,102639.27
2023-04-09T01:01:13.304Z,102629.03
2023-04-09T01:03:43.813Z,102631.11
2023-04-09T01:06:26.096Z,102630.58
2023-04-09T01:09:16.001Z,102628.98
2023-04-09T01:11:57.814Z,102625.80
2023-04-09T01:14:48.384Z,102624.08
2023-04-09T01:17:28.823Z,102623.52
2023-04-09T01:20:09.969Z,102625.80
2023-04-09T01:23:11.060Z,102625.80
2023-04-09T01:25:56.232Z,102620.56
2023-04-09T01:28:28.857Z,102623.19
2023-04-09T01:33:43.691Z,102621.66
2023-04-09T01:36:13.696Z,102619.36
2023-04-09T01:38:44.274Z,102617.77
2023-04-09T01:41:17.203Z,102619.44
2023-04-09T01:43:47.992Z,102616.39
2023-04-09T01:46:18.973Z,102615.72
2023-04-09T01:48:49.502Z,102616.36
2023-04-09T01:51:19.964Z,102610.05
2023-04-09T01:53:50.539Z,102609.87
2023-04-09T01:56:21.325Z,102613.95
2023-04-09T01:58:52.692Z,102607.45
2023-04-09T02:01:25.755Z,102609.80
2023-04-09T02:04:07.863Z,102605.30
2023-04-09T02:07:01.406Z,102605.71
2023-04-09T02:09:33.188Z,102607.66
2023-04-09T02:12:06.340Z,102612.78
2023-04-09T02:14:38.501Z,102606.94
2023-04-09T02:17:08.779Z,102606.94
2023-04-09T02:19:46.384Z,102614.69
2023-04-09T02:22:17.560Z,102611.48
2023-04-09T02:24:48.187Z,102601.10
2023-04-09T02:27:18.115Z,102598.88
2023-04-09T02:29:47.949Z,102599.67
2023-04-09T02:32:17.452Z,102600.41
2023-04-09T02:34:47.514Z,102596.29
2023-04-09T02:37:18.292Z,102593.02
2023-04-09T02:39:49.753Z,102597.59
2023-04-09T02:42:19.730Z,102598.14
2023-04-09T02:44:49.682Z,102595.03
2023-04-09T02:47:19.666Z,102593.53
2023-04-09T02:49:49.618Z,102587.39
2023-04-09T02:52:20.201Z,102590.52
2023-04-09T02:54:50.092Z,102589.15
2023-04-09T02:57:20.058Z,102581.49
2023-04-09T02:59:49.871Z,102580.81
2023-04-09T03:02:19.776Z,102586.22
2023-04-09T03:04:49.750Z,102575.16
2023-04-09T03:07:19.558Z,102578.00
2023-04-09T03:09:49.389Z,102573.91
2023-04-09T03:12:19.400Z,102576.69
2023-04-09T03:14:51.293Z,102578.73
2023-04-09T03:17:20.763Z,102578.73
2023-04-09T03:19:50.682Z,102578.42
2023-04-09T03:22:22.205Z,102578.42
2023-04-09T03:24:53.720Z,102575.37
2023-04-09T03:27:23.257Z,102575.03
2023-04-09T03:29:57.945Z,102573.67
2023-04-09T03:32:29.776Z,102571.54
2023-04-09T03:35:00.238Z,102569.13
2023-04-09T03:37:30.350Z,102567.45
2023-04-09T03:40:00.250Z,102561.47
2023-04-09T03:42:31.219Z,102557.40
2023-04-09T03:45:01.372Z,102551.77
2023-04-09T03:47:38.743Z,102551.77
2023-04-09T03:50:11.431Z,102554.10
2023-04-09T03:52:45.573Z,102550.89
2023-04-09T03:55:15.460Z,102550.89
2023-04-09T03:57:45.290Z,102556.38
2023-04-09T04:00:17.049Z,102547.62
2023-04-09T04:03:04.858Z,102552.37
2023-04-09T04:05:36.498Z,102553.73
2023-04-09T04:08:09.940Z,102552.03
2023-04-09T04:10:39.586Z,102553.40
2023-04-09T04:13:10.451Z,102546.37
2023-04-09T04:15:48.213Z,102548.62
2023-04-09T04:18:18.979Z,102551.28
2023-04-09T04:20:50.518Z,102548.89
2023-04-09T04:23:20.685Z,102548.89
2023-04-09T04:25:56.933Z,102556.02
2023-04-09T04:28:28.285Z,102557.38
2023-04-09T04:30:58.192Z,102555.98
2023-04-09T04:33:28.248Z,102557.42
2023-04-09T04:36:06.833Z,102561.33
2023-04-09T04:38:42.417Z,102563.89
2023-04-09T04:41:14.013Z,102561.05
2023-04-09T04:43:47.389Z,102560.70
2023-04-09T04:46:20.575Z,102570.19
2023-04-09T04:48:51.009Z,102568.16
2023-04-09T04:51:21.587Z,102568.32
2023-04-09T04:53:53.137Z,102561.96
2023-04-09T04:56:23.234Z,102565.50
2023-04-09T04:58:57.700Z,102565.50
2023-04-09T05:01:27.792Z,102570.48
2023-04-09T05:03:57.839Z,102570.28
2023-04-09T05:06:29.747Z,102571.34
2023-04-09T05:09:01.419Z,102569.37
2023-04-09T05:11:32.927Z,102561.81
2023-04-09T05:14:03.115Z,102561.06
2023-04-09T05:16:33.331Z,102554.39
2023-04-09T05:19:04.924Z,102554.39
2023-04-09T05:21:34.688Z,102554.60
2023-04-09T05:24:06.723Z,102554.41
2023-04-09T05:26:36.792Z,102560.20
2023-04-09T05:29:06.677Z,102557.68
2023-04-09T05:31:36.743Z,102571.23
2023-04-09T05:34:11.717Z,102570.02
2023-04-09T05:36:43.513Z,102569.63
2023-04-09T05:39:13.515Z,102566.20
2023-04-09T05:41:44.695Z,102570.24
2023-04-09T05:44:16.260Z,102569.30
2023-04-09T05:46:46.136Z,102569.30
2023-04-09T05:49:17.760Z,102571.12
2023-04-09T05:51:49.769Z,102571.12
2023-04-09T05:54:21.050Z,102578.00
2023-04-09T05:56:52.460Z,102584.97
2023-04-09T05:59:22.642Z,102576.42
2023-04-09T06:01:52.510Z,102578.31
2023-04-09T06:04:22.281Z,102576.34
2023-04-09T06:06:52.768Z,102576.34
2023-04-09T06:09:22.736Z,102573.62
2023-04-09T06:11:52.726Z,102552.17
2023-04-09T06:14:23.135Z,102574.39
2023-04-09T06:16:52.952Z,102567.00
2023-04-09T06:19:23.975Z,102573.99
2023-04-09T06:21:54.101Z,102570.77
2023-04-09T06:24:24.205Z,102577.81
2023-04-09T06:26:54.133Z,102577.81
2023-04-09T06:29:24.468Z,102578.58
2023-04-09T06:31:54.393Z,102577.30
2023-04-09T06:34:23.975Z,102581.27
2023-04-09T06:36:53.910Z,102581.97
2023-04-09T06:39:23.749Z,102587.13
2023-04-09T06:41:53.721Z,102582.22
2023-04-09T06:44:42.988Z,102584.73
2023-04-09T06:47:12.792Z,102584.69
2023-04-09T06:49:42.680Z,102586.45
2023-04-09T06:52:12.526Z,102591.63
2023-04-09T06:54:42.650Z,102584.45
2023-04-09T06:57:12.593Z,102581.60
2023-04-09T06:59:42.169Z,102582.42
2023-04-09T07:02:11.954Z,102580.58
2023-04-09T07:04:41.970Z,102582.92
2023-04-09T07:07:12.694Z,102583.46
2023-04-09T07:09:43.005Z,102595.15
2023-04-09T07:12:12.829Z,102587.32
2023-04-09T07:14:42.654Z,102585.94
2023-04-09T07:17:12.850Z,102593.70
2023-04-09T07:19:42.655Z,102587.61
2023-04-09T07:22:12.450Z,102586.22
2023-04-09T07:24:42.623Z,102595.16
2023-04-09T07:27:12.738Z,102595.53
2023-04-09T07:29:45.552Z,102581.58
2023-04-09T07:32:16.030Z,102581.58
2023-04-09T07:34:46.208Z,102587.88
2023-04-09T07:37:16.186Z,102592.20
2023-04-09T07:39:46.719Z,102595.33
2023-04-09T07:42:16.638Z,102589.93
2023-04-09T07:44:47.537Z,102589.33
2023-04-09T07:47:17.790Z,102594.34
2023-04-09T07:49:47.690Z,102589.16
2023-04-09T07:52:17.560Z,102587.52
2023-04-09T07:54:47.544Z,102594.80
2023-04-09T07:57:17.544Z,102594.80
2023-04-09T07:59:47.525Z,102591.73
2023-04-09T08:02:17.784Z,102590.05
2023-04-09T08:04:48.116Z,102593.37
2023-04-09T08:07:18.084Z,102588.89
2023-04-09T08:09:47.915Z,102586.04
2023-04-09T08:12:17.583Z,102588.27
2023-04-09T08:14:47.450Z,102591.81
2023-04-09T08:17:17.588Z,102585.05
2023-04-09T08:19:49.465Z,102593.37
2023-04-09T08:22:19.405Z,102590.16
2023-04-09T08:24:53.862Z,102593.14
2023-04-09T08:27:23.728Z,102587.17
2023-04-09T08:29:53.554Z,102587.18
2023-04-09T08:32:23.192Z,102586.86
2023-04-09T08:34:53.030Z,102595.17
2023-04-09T08:37:22.862Z,102594.48
2023-04-09T08:39:52.680Z,102595.48
2023-04-09T08:42:23.932Z,102589.64
2023-04-09T08:44:53.825Z,102591.84
2023-04-09T08:47:24.668Z,102557.89
2023-04-09T08:49:54.568Z,102557.89
2023-04-09T08:52:35.661Z,102590.64
2023-04-09T08:55:09.301Z,102588.64
2023-04-09T08:57:40.172Z,102585.58
2023-04-09T09:00:12.859Z,102589.84
2023-04-09T09:03:04.328Z,102587.10
2023-04-09T09:05:39.316Z,102583.97
2023-04-09T09:08:13.306Z,102580.11
2023-04-09T09:10:47.037Z,102571.75
2023-04-09T09:13:27.861Z,102571.75
2023-04-09T09:16:16.267Z,102560.59
2023-04-09T09:18:46.389Z,102560.59
2023-04-09T09:21:19.401Z,102563.19
2023-04-09T09:23:50.666Z,102566.05
2023-04-09T09:26:24.647Z,102566.08
2023-04-09T09:28:55.428Z,102559.99
2023-04-09T09:31:25.813Z,102567.88
2023-04-09T09:33:56.434Z,102566.73
2023-04-09T09:36:36.040Z,102559.83
2023-04-09T09:39:07.658Z,102557.69
2023-04-09T09:41:38.416Z,102552.31
2023-04-09T09:44:11.761Z,102549.63
2023-04-09T09:46:43.830Z,102555.72
2023-04-09T09:49:13.646Z,102544.13
2023-04-09T09:51:44.285Z,102550.86
2023-04-09T09:54:16.484Z,102556.84
2023-04-09T09:56:47.458Z,102543.06
2023-04-09T09:59:22.596Z,102550.11
2023-04-09T10:02:01.570Z,102548.44
2023-04-09T10:04:36.589Z,102539.16
2023-04-09T10:07:08.695Z,102531.95
2023-04-09T10:09:44.260Z,102534.45
2023-04-09T10:12:14.423Z,102532.91
2023-04-09T10:14:45.974Z,102532.27
2023-04-09T10:17:16.212Z,102524.45
2023-04-09T10:20:14.466Z,102526.86
2023-04-09T10:22:48.042Z,102516.89
2023-04-09T10:25:17.936Z,102514.45
2023-04-09T10:27:49.258Z,102516.92
2023-04-09T10:30:37.749Z,102516.92
2023-04-09T10:33:16.063Z,102513.30
2023-04-09T10:35:50.162Z,102505.23
2023-04-09T10:38:40.931Z,102496.60
2023-04-09T10:41:24.459Z,102502.09
2023-04-09T10:43:54.461Z,102493.36
2023-04-09T10:46:30.071Z,102491.93
2023-04-09T10:49:13.791Z,102487.09
2023-04-09T10:51:45.616Z,102483.87
2023-04-09T10:54:38.777Z,102484.88
2023-04-09T10:57:15.656Z,102459.87
2023-04-09T10:59:48.655Z,102459.87
2023-04-09T11:02:39.417Z,102478.95
2023-04-09T11:05:24.849Z,102476.17
2023-04-09T11:08:10.873Z,102472.36
2023-04-09T11:10:45.306Z,102467.44
2023-04-09T11:13:20.903Z,102441.14
2023-04-09T11:15:50.551Z,102441.14
2023-04-09T11:18:28.216Z,102458.36
2023-04-09T11:21:03.757Z,102454.47
2023-04-09T11:23:34.096Z,102449.47
2023-04-09T11:26:06.463Z,102450.65
2023-04-09T11:28:36.547Z,102451.11
2023-04-09T11:31:07.160Z,102442.27
2023-04-09T11:33:37.193Z,102439.09
2023-04-09T11:36:08.828Z,102438.23
2023-04-09T11:38:39.227Z,102438.78
2023-04-09T11:41:10.695Z,102437.13
2023-04-09T11:43:40.565Z,102441.22
2023-04-09T11:46:11.868Z,102449.52
2023-04-09T11:48:41.804Z,102450.73
2023-04-09T11:51:12.061Z,102450.73
2023-04-09T11:53:41.988Z,102447.63
2023-04-09T11:56:11.876Z,102440.55
2023-04-09T11:58:44.744Z,102446.30
2023-04-09T12:01:15.582Z,102443.66
2023-04-09T12:03:45.870Z,102432.69
2023-04-09T12:06:15.714Z,102432.69
2023-04-09T12:08:45.915Z,102432.57
2023-04-09T12:11:17.493Z,102421.92
2023-04-09T12:13:47.845Z,102421.92
2023-04-09T12:16:23.180Z,102430.89
2023-04-09T12:18:55.087Z,102427.91
2023-04-09T12:21:27.549Z,102427.02
2023-04-09T12:23:57.404Z,102427.60
2023-04-09T12:26:26.870Z,102426.77
2023-04-09T12:28:56.694Z,102437.47
2023-04-09T12:31:26.856Z,102428.78
2023-04-09T12:33:56.720Z,102428.55
2023-04-09T12:36:26.573Z,102416.38
2023-04-09T12:38:56.390Z,102419.03
2023-04-09T12:41:26.196Z,102403.53
2023-04-09T12:43:56.134Z,102403.53
2023-04-09T12:46:25.877Z,102413.92
2023-04-09T12:48:55.794Z,102417.18
2023-04-09T12:51:25.795Z,102415.38
2023-04-09T12:53:55.808Z,102413.26
2023-04-09T12:56:25.655Z,102414.10
2023-04-09T12:58:55.555Z,102407.80
2023-04-09T13:01:25.444Z,102403.09
2023-04-09T13:03:55.802Z,102411.91
2023-04-09T13:06:25.550Z,102413.48
2023-04-09T13:08:55.131Z,102415.55
2023-04-09T13:11:25.434Z,102420.88
2023-04-09T13:13:55.659Z,102415.88
2023-04-09T13:16:25.966Z,102414.10
2023-04-09T13:18:56.065Z,102412.94
2023-04-09T13:21:26.302Z,102404.62
2023-04-09T13:23:56.144Z,102401.23
2023-04-09T13:26:25.933Z,102401.23
2023-04-09T13:28:55.816Z,102406.30
2023-04-09T13:31:25.673Z,102406.30
2023-04-09T13:33:55.887Z,102396.68
2023-04-09T13:36:25.958Z,102396.69
2023-04-09T13:38:56.338Z,102392.19
2023-04-09T13:41:29.312Z,102389.09
2023-04-09T13:44:00.242Z,102397.77
2023-04-09T13:46:30.177Z,102402.23
2023-04-09T13:49:00.260Z,102405.86
2023-04-09T13:51:32.713Z,102400.41
2023-04-09T13:54:05.257Z,102402.85
2023-04-09T13:56:34.047Z,102396.92
2023-04-09T13:59:03.851Z,102394.92
2023-04-09T14:01:33.953Z,102389.22
2023-04-09T14:04:05.124Z,102391.63
2023-04-09T14:06:35.097Z,102374.78
2023-04-09T14:09:04.988Z,102374.78
2023-04-09T14:11:34.625Z,102385.55
2023-04-09T14:14:06.361Z,102380.97
2023-04-09T14:16:36.422Z,102375.01
2023-04-09T14:19:07.276Z,102368.64
2023-04-09T14:21:37.136Z,102366.91
2023-04-09T14:24:08.183Z,102363.26
2023-04-09T14:26:38.133Z,102356.07
2023-04-09T14:29:08.033Z,102350.89
2023-04-09T14:31:37.894Z,102353.71
2023-04-09T14:34:09.739Z,102354.89
2023-04-09T14:36:39.552Z,102354.33
2023-04-09T14:39:09.651Z,102357.20
2023-04-09T14:41:39.447Z,102350.12
2023-04-09T14:44:11.186Z,102342.95
2023-04-09T14:46:41.146Z,102343.27
2023-04-09T14:49:11.088Z,102343.27
2023-04-09T14:51:41.348Z,102344.06
2023-04-09T14:54:11.496Z,102337.91
2023-04-09T14:56:41.770Z,102339.73
2023-04-09T14:59:11.300Z,102339.73
2023-04-09T15:01:41.226Z,102330.91
2023-04-09T15:04:11.410Z,102338.31
2023-04-09T15:06:41.120Z,102337.73
2023-04-09T15:09:11.007Z,102339.43
2023-04-09T15:11:41.556Z,102332.37
2023-04-09T15:14:11.256Z,102327.42
2023-04-09T15:16:41.460Z,102323.70
2023-04-09T15:19:11.784Z,102320.50
2023-04-09T15:24:24.206Z,102314.87
2023-04-09T15:26:54.009Z,102303.66
2023-04-09T15:29:23.895Z,102309.20
2023-04-09T15:31:56.417Z,102304.39
2023-04-09T15:34:26.491Z,102302.53
2023-04-09T15:36:56.293Z,102300.30
2023-04-09T15:39:27.903Z,102291.53
2023-04-09T15:41:58.046Z,102284.84
2023-04-09T15:44:27.806Z,102284.84
2023-04-09T15:46:57.618Z,102274.63
2023-04-09T15:49:27.558Z,102270.39
2023-04-09T15:51:57.404Z,102274.50
2023-04-09T15:54:26.944Z,102262.11
2023-04-09T15:56:56.796Z,102275.16
2023-04-09T15:59:26.589Z,102288.47
2023-04-09T16:01:56.520Z,102283.69
2023-04-09T16:04:27.594Z,102285.86
2023-04-09T16:06:57.230Z,102289.94
2023-04-09T16:09:27.044Z,102289.94
2023-04-09T16:11:56.914Z,102282.47
2023-04-09T16:14:26.489Z,102284.56
2023-04-09T16:16:56.437Z,102284.77
2023-04-09T16:19:26.304Z,102282.78
2023-04-09T16:21:56.466Z,102274.55
2023-04-09T16:24:28.342Z,102278.58
2023-04-09T16:26:58.123Z,102279.06
2023-04-09T16:29:28.093Z,102270.77
2023-04-09T16:31:58.406Z,102263.70
2023-04-09T16:34:27.966Z,102267.50
2023-04-09T16:36:57.780Z,102266.17
2023-04-09T16:39:27.867Z,102266.40
2023-04-09T16:41:58.334Z,102264.58
2023-04-09T16:44:27.864Z,102269.81
2023-04-09T16:46:57.678Z,102269.57
2023-04-09T16:49:28.021Z,102270.96
2023-04-09T16:52:00.815Z,102272.88
2023-04-09T16:54:31.119Z,102270.80
2023-04-09T16:57:01.836Z,102268.19
2023-04-09T16:59:32.380Z,102269.49
2023-04-09T17:02:02.387Z,102270.05
2023-04-09T17:04:34.199Z,102266.88
2023-04-09T17:07:04.631Z,102262.84
2023-04-09T17:09:34.295Z,102263.52
2023-04-09T17:12:06.537Z,102265.09
2023-04-09T17:14:38.345Z,102260.22
2023-04-09T17:17:08.712Z,102260.22
2023-04-09T17:19:39.626Z,102255.33
2023-04-09T17:22:13.390Z,102255.30
2023-04-09T17:24:43.248Z,102255.56
2023-04-09T17:27:13.070Z,102254.77
2023-04-09T17:29:42.901Z,102254.45
2023-04-09T17:32:12.696Z,102253.40
2023-04-09T17:34:42.529Z,102254.88
2023-04-09T17:37:12.090Z,102250.34
2023-04-09T17:39:41.991Z,102247.91
2023-04-09T17:42:14.585Z,102252.81
2023-04-09T17:44:45.169Z,102246.55
2023-04-09T17:47:15.003Z,102245.71
2023-04-09T17:49:45.669Z,102257.16
2023-04-09T17:52:16.242Z,102245.91
2023-04-09T17:54:46.613Z,102259.26
2023-04-09T17:57:16.471Z,102255.57
2023-04-09T17:59:46.319Z,102253.89
2023-04-09T18:02:16.188Z,102261.13
2023-04-09T18:04:46.463Z,102263.85
2023-04-09T18:07:17.129Z,102256.31
2023-04-09T18:09:47.003Z,102256.84
2023-04-09T18:12:17.571Z,102254.44
2023-04-09T18:14:49.135Z,102254.54
2023-04-09T18:17:19.128Z,102254.36
2023-04-09T18:19:49.519Z,102256.28
2023-04-09T18:22:19.635Z,102260.99
2023-04-09T18:24:49.262Z,102254.98
2023-04-09T18:27:20.229Z,102264.03
2023-04-09T18:29:50.108Z,102260.55
2023-04-09T18:32:19.854Z,102260.06
2023-04-09T18:34:49.974Z,102262.12
2023-04-09T18:37:21.623Z,102261.12
2023-04-09T18:39:51.153Z,102263.31
2023-04-09T18:42:20.790Z,102265.59
2023-04-09T18:44:50.775Z,102271.44
2023-04-09T18:47:20.770Z,102265.86
2023-04-09T18:49:50.327Z,102266.92
2023-04-09T18:52:19.875Z,102276.52
2023-04-09T18:54:49.685Z,102263.16
2023-04-09T18:57:19.996Z,102271.29
2023-04-09T18:59:49.779Z,102264.34
2023-04-09T19:02:19.416Z,102265.20
2023-04-09T19:04:49.485Z,102267.70
2023-04-09T19:07:20.885Z,102276.67
2023-04-09T19:09:50.807Z,102279.10
2023-04-09T19:12:20.668Z,102281.78
2023-04-09T19:14:50.558Z,102286.38
2023-04-09T19:17:20.533Z,102278.91
2023-04-09T19:19:50.383Z,102279.66
2023-04-09T19:22:20.562Z,102279.48
2023-04-09T19:24:50.943Z,102274.39
2023-04-09T19:27:20.754Z,102282.36
2023-04-09T19:29:50.932Z,102282.09
2023-04-09T19:32:20.775Z,102286.50
2023-04-09T19:34:50.895Z,102289.79
2023-04-09T19:37:21.199Z,102289.79
2023-04-09T19:39:51.028Z,102283.31
2023-04-09T19:42:21.310Z,102283.31
2023-04-09T19:44:51.094Z,102279.83
2023-04-09T19:47:21.020Z,102269.09
2023-04-09T19:49:52.502Z,102269.58
2023-04-09T19:52:22.484Z,102239.98
2023-04-09T19:54:56.255Z,102239.98
2023-04-09T19:57:26.362Z,102258.30
2023-04-09T19:59:56.470Z,102258.30
2023-04-09T20:02:26.876Z,102265.93
2023-04-09T20:04:56.739Z,102265.93
2023-04-09T20:07:27.146Z,102260.78
2023-04-09T20:09:57.575Z,102262.28
2023-04-09T20:12:30.444Z,102262.94
2023-04-09T20:15:00.717Z,102263.06
2023-04-09T20:17:30.810Z,102256.22
2023-04-09T20:20:00.647Z,102259.29
2023-04-09T20:22:30.442Z,102259.22
2023-04-09T20:25:02.994Z,102249.25
2023-04-09T20:27:33.068Z,102253.86
2023-04-09T20:30:03.287Z,102247.55
2023-04-09T20:32:33.139Z,102248.48
2023-04-09T20:35:03.037Z,102243.56
2023-04-09T20:37:32.909Z,102234.92
2023-04-09T20:40:03.128Z,102224.41
2023-04-09T20:42:33.160Z,102224.41
2023-04-09T20:45:03.012Z,102221.82
2023-04-09T20:47:32.964Z,102224.08
2023-04-09T20:50:03.352Z,102224.01
2023-04-09T20:52:33.254Z,102231.30
2023-04-09T20:55:03.136Z,102231.88
2023-04-09T20:57:33.341Z,102229.06
2023-04-09T21:00:03.349Z,102229.06
2023-04-09T21:02:33.449Z,102227.59
2023-04-09T21:05:15.679Z,102229.09
2023-04-09T21:07:34.955Z,102232.59
2023-04-09T21:10:06.820Z,102229.40
2023-04-09T21:12:36.615Z,102229.40
2023-04-09T21:15:07.976Z,102232.13
2023-04-09T21:17:37.849Z,102224.97
2023-04-09T21:20:10.791Z,102224.02
2023-04-09T21:22:41.019Z,102222.79
2023-04-09T21:25:12.181Z,102223.64
2023-04-09T21:27:42.072Z,102215.95
2023-04-09T21:30:13.263Z,102216.02
2023-04-09T21:32:43.175Z,102217.94
2023-04-09T21:35:12.793Z,102222.45
2023-04-09T21:37:42.737Z,102224.11
2023-04-09T21:40:16.667Z,102221.75
2023-04-09T21:42:46.000Z,102223.63
2023-04-09T21:45:16.230Z,102220.20
2023-04-09T21:47:46.207Z,102222.41
2023-04-09T21:50:16.887Z,102216.66
2023-04-09T21:52:47.232Z,102214.62
2023-04-09T21:55:16.810Z,102221.94
2023-04-09T21:57:46.657Z,102225.38
2023-04-09T22:00:16.904Z,102222.27
2023-04-09T22:02:47.219Z,102225.34
2023-04-09T22:05:17.136Z,102220.05
2023-04-09T22:07:46.963Z,102215.33
2023-04-09T22:10:16.811Z,102215.66
2023-04-09T22:12:46.744Z,102219.95
2023-04-09T22:15:16.822Z,102223.20
2023-04-09T22:17:46.772Z,102223.56
2023-04-09T22:20:16.633Z,102231.91
2023-04-09T22:22:48.265Z,102229.21
2023-04-09T22:25:18.142Z,102232.42
2023-04-09T22:27:53.113Z,102209.48
2023-04-09T22:30:24.406Z,102209.48
2023-04-09T22:32:54.245Z,102232.48
2023-04-09T22:35:23.901Z,102231.66
2023-04-09T22:37:53.717Z,102232.20
2023-04-09T22:40:23.528Z,102225.50
2023-04-09T22:42:53.341Z,102228.55
2023-04-09T22:45:23.167Z,102229.70
2023-04-09T22:47:53.039Z,102229.70
2023-04-09T22:50:23.377Z,102231.39
2023-04-09T22:52:54.366Z,102229.83
2023-04-09T22:55:24.149Z,102227.79
2023-04-09T22:57:54.998Z,102228.62
2023-04-09T23:00:25.003Z,102226.60
2023-04-09T23:02:55.037Z,102221.32
2023-04-09T23:05:24.923Z,102219.75
2023-04-09T23:07:54.757Z,102218.25
2023-04-09T23:10:24.301Z,102220.69
2023-04-09T23:12:54.226Z,102218.78
2023-04-09T23:15:23.970Z,102217.63
2023-04-09T23:17:54.013Z,102207.05
2023-04-09T23:20:23.752Z,102207.05
2023-04-09T23:22:53.984Z,102200.91
2023-04-09T23:25:23.785Z,102202.94
2023-04-09T23:27:53.923Z,102203.33
2023-04-09T23:30:24.388Z,102199.20
2023-04-09T23:32:56.293Z,102197.02
2023-04-09T23:35:25.757Z,102195.15
2023-04-09T23:37:55.964Z,102202.48
2023-04-09T23:40:25.867Z,102189.52
2023-04-09T23:42:55.870Z,102189.69
2023-04-09T23:45:25.402Z,102189.69
2023-04-09T23:47:55.345Z,102193.94
2023-04-09T23:50:24.957Z,102192.58
2023-04-09T23:52:56.378Z,102189.85
2023-04-09T23:55:27.161Z,102186.45
2023-04-09T23:57:57.265Z,102187.14
